sensor_id;sensor_type;location;lat;lon;timestamp;P1;durP1;ratioP1;P2;durP2;ratioP2
26634;SDS011;14490;54.208;37.686;2023-07-28T00:00:24;13.38;;;9.07;;
26634;SDS011;14490;54.208;37.686;2023-07-28T00:02:52;11.00;;;8.75;;
26634;SDS011;14490;54.208;37.686;2023-07-28T00:05:19;11.65;;;8.98;;
26634;SDS011;14490;54.208;37.686;2023-07-28T00:07:46;16.40;;;8.65;;
26634;SDS011;14490;54.208;37.686;2023-07-28T00:10:14;9.93;;;8.75;;
26634;SDS011;14490;54.208;37.686;2023-07-28T00:12:43;9.95;;;8.85;;
26634;SDS011;14490;54.208;37.686;2023-07-28T00:15:11;14.00;;;8.43;;
26634;SDS011;14490;54.208;37.686;2023-07-28T00:17:38;10.40;;;8.48;;
26634;SDS011;14490;54.208;37.686;2023-07-28T00:20:08;10.98;;;8.25;;
26634;SDS011;14490;54.208;37.686;2023-07-28T00:22:36;11.02;;;6.82;;
26634;SDS011;14490;54.208;37.686;2023-07-28T00:25:03;9.95;;;6.97;;
26634;SDS011;14490;54.208;37.686;2023-07-28T00:27:31;10.48;;;7.55;;
26634;SDS011;14490;54.208;37.686;2023-07-28T00:30:00;12.98;;;7.40;;
26634;SDS011;14490;54.208;37.686;2023-07-28T00:32:27;10.30;;;6.93;;
26634;SDS011;14490;54.208;37.686;2023-07-28T00:34:55;9.48;;;6.40;;
26634;SDS011;14490;54.208;37.686;2023-07-28T00:37:27;8.10;;;7.22;;
26634;SDS011;14490;54.208;37.686;2023-07-28T00:39:54;11.80;;;7.10;;
26634;SDS011;14490;54.208;37.686;2023-07-28T00:42:21;12.60;;;7.40;;
26634;SDS011;14490;54.208;37.686;2023-07-28T00:44:49;7.72;;;6.60;;
26634;SDS011;14490;54.208;37.686;2023-07-28T00:47:18;10.38;;;7.30;;
26634;SDS011;14490;54.208;37.686;2023-07-28T00:49:45;8.30;;;6.70;;
26634;SDS011;14490;54.208;37.686;2023-07-28T00:52:13;13.00;;;6.57;;
26634;SDS011;14490;54.208;37.686;2023-07-28T00:54:41;8.85;;;6.55;;
26634;SDS011;14490;54.208;37.686;2023-07-28T00:57:09;16.65;;;7.55;;
26634;SDS011;14490;54.208;37.686;2023-07-28T00:59:37;6.68;;;5.93;;
26634;SDS011;14490;54.208;37.686;2023-07-28T01:02:05;7.30;;;6.45;;
26634;SDS011;14490;54.208;37.686;2023-07-28T01:04:34;6.63;;;6.03;;
26634;SDS011;14490;54.208;37.686;2023-07-28T01:07:03;11.90;;;6.47;;
26634;SDS011;14490;54.208;37.686;2023-07-28T01:09:36;8.75;;;6.35;;
26634;SDS011;14490;54.208;37.686;2023-07-28T01:12:07;7.45;;;6.22;;
26634;SDS011;14490;54.208;37.686;2023-07-28T01:14:38;13.50;;;7.93;;
26634;SDS011;14490;54.208;37.686;2023-07-28T01:17:06;12.27;;;6.45;;
26634;SDS011;14490;54.208;37.686;2023-07-28T01:19:35;8.32;;;6.93;;
26634;SDS011;14490;54.208;37.686;2023-07-28T01:22:12;7.70;;;6.93;;
26634;SDS011;14490;54.208;37.686;2023-07-28T01:24:49;14.77;;;7.07;;
26634;SDS011;14490;54.208;37.686;2023-07-28T01:27:21;10.43;;;6.45;;
26634;SDS011;14490;54.208;37.686;2023-07-28T01:29:48;10.60;;;7.63;;
26634;SDS011;14490;54.208;37.686;2023-07-28T01:32:15;10.15;;;6.97;;
26634;SDS011;14490;54.208;37.686;2023-07-28T01:34:43;11.13;;;7.35;;
26634;SDS011;14490;54.208;37.686;2023-07-28T01:37:11;8.57;;;6.95;;
26634;SDS011;14490;54.208;37.686;2023-07-28T01:39:41;11.55;;;6.97;;
26634;SDS011;14490;54.208;37.686;2023-07-28T01:42:08;13.10;;;7.13;;
26634;SDS011;14490;54.208;37.686;2023-07-28T01:44:43;7.68;;;6.97;;
26634;SDS011;14490;54.208;37.686;2023-07-28T01:47:10;12.82;;;6.88;;
26634;SDS011;14490;54.208;37.686;2023-07-28T01:49:40;9.20;;;7.00;;
26634;SDS011;14490;54.208;37.686;2023-07-28T01:52:07;11.38;;;6.85;;
26634;SDS011;14490;54.208;37.686;2023-07-28T01:54:34;10.95;;;7.07;;
26634;SDS011;14490;54.208;37.686;2023-07-28T01:57:01;11.07;;;7.53;;
26634;SDS011;14490;54.208;37.686;2023-07-28T01:59:29;9.25;;;7.20;;
26634;SDS011;14490;54.208;37.686;2023-07-28T02:01:58;10.57;;;7.43;;
26634;SDS011;14490;54.208;37.686;2023-07-28T02:04:25;15.48;;;7.68;;
26634;SDS011;14490;54.208;37.686;2023-07-28T02:06:53;16.33;;;7.30;;
26634;SDS011;14490;54.208;37.686;2023-07-28T02:09:20;11.63;;;6.93;;
26634;SDS011;14490;54.208;37.686;2023-07-28T02:11:47;9.43;;;7.47;;
26634;SDS011;14490;54.208;37.686;2023-07-28T02:14:15;9.35;;;6.90;;
26634;SDS011;14490;54.208;37.686;2023-07-28T02:16:42;7.65;;;6.82;;
26634;SDS011;14490;54.208;37.686;2023-07-28T02:19:13;9.77;;;7.28;;
26634;SDS011;14490;54.208;37.686;2023-07-28T02:21:41;13.77;;;8.13;;
26634;SDS011;14490;54.208;37.686;2023-07-28T02:24:08;8.70;;;7.90;;
26634;SDS011;14490;54.208;37.686;2023-07-28T02:26:36;8.50;;;7.20;;
26634;SDS011;14490;54.208;37.686;2023-07-28T02:29:03;9.90;;;7.47;;
26634;SDS011;14490;54.208;37.686;2023-07-28T02:31:30;11.98;;;8.43;;
26634;SDS011;14490;54.208;37.686;2023-07-28T02:33:58;8.80;;;8.00;;
26634;SDS011;14490;54.208;37.686;2023-07-28T02:36:27;10.57;;;7.43;;
26634;SDS011;14490;54.208;37.686;2023-07-28T02:38:54;8.25;;;6.40;;
26634;SDS011;14490;54.208;37.686;2023-07-28T02:43:53;11.48;;;5.75;;
26634;SDS011;14490;54.208;37.686;2023-07-28T02:46:20;5.95;;;5.25;;
26634;SDS011;14490;54.208;37.686;2023-07-28T02:48:48;5.68;;;4.00;;
26634;SDS011;14490;54.208;37.686;2023-07-28T02:51:15;3.90;;;3.50;;
26634;SDS011;14490;54.208;37.686;2023-07-28T02:53:44;7.65;;;5.07;;
26634;SDS011;14490;54.208;37.686;2023-07-28T02:56:11;7.07;;;5.30;;
26634;SDS011;14490;54.208;37.686;2023-07-28T02:58:39;5.13;;;4.45;;
26634;SDS011;14490;54.208;37.686;2023-07-28T03:01:06;7.57;;;5.00;;
26634;SDS011;14490;54.208;37.686;2023-07-28T03:03:33;6.22;;;5.40;;
26634;SDS011;14490;54.208;37.686;2023-07-28T03:06:00;5.82;;;5.07;;
26634;SDS011;14490;54.208;37.686;2023-07-28T03:08:28;10.23;;;6.63;;
26634;SDS011;14490;54.208;37.686;2023-07-28T03:10:57;7.40;;;6.75;;
26634;SDS011;14490;54.208;37.686;2023-07-28T03:13:27;7.85;;;7.15;;
26634;SDS011;14490;54.208;37.686;2023-07-28T03:15:54;13.30;;;7.65;;
26634;SDS011;14490;54.208;37.686;2023-07-28T03:18:22;8.07;;;7.38;;
26634;SDS011;14490;54.208;37.686;2023-07-28T03:20:49;11.45;;;7.78;;
26634;SDS011;14490;54.208;37.686;2023-07-28T03:23:16;9.70;;;7.80;;
26634;SDS011;14490;54.208;37.686;2023-07-28T03:25:43;12.63;;;6.80;;
26634;SDS011;14490;54.208;37.686;2023-07-28T03:28:12;7.57;;;6.93;;
26634;SDS011;14490;54.208;37.686;2023-07-28T03:30:39;9.10;;;7.13;;
26634;SDS011;14490;54.208;37.686;2023-07-28T03:33:07;17.92;;;7.40;;
26634;SDS011;14490;54.208;37.686;2023-07-28T03:35:34;8.00;;;6.90;;
26634;SDS011;14490;54.208;37.686;2023-07-28T03:38:02;10.18;;;7.65;;
26634;SDS011;14490;54.208;37.686;2023-07-28T03:40:29;9.45;;;7.20;;
26634;SDS011;14490;54.208;37.686;2023-07-28T03:42:56;9.25;;;7.05;;
26634;SDS011;14490;54.208;37.686;2023-07-28T03:45:25;9.93;;;6.90;;
26634;SDS011;14490;54.208;37.686;2023-07-28T03:47:52;8.75;;;6.38;;
26634;SDS011;14490;54.208;37.686;2023-07-28T03:50:20;8.30;;;7.50;;
26634;SDS011;14490;54.208;37.686;2023-07-28T03:52:49;9.18;;;6.93;;
26634;SDS011;14490;54.208;37.686;2023-07-28T03:55:16;7.28;;;6.28;;
26634;SDS011;14490;54.208;37.686;2023-07-28T03:57:44;16.38;;;7.90;;
26634;SDS011;14490;54.208;37.686;2023-07-28T04:00:12;15.02;;;7.07;;
26634;SDS011;14490;54.208;37.686;2023-07-28T04:02:43;12.05;;;7.70;;
26634;SDS011;14490;54.208;37.686;2023-07-28T04:05:10;10.38;;;6.93;;
26634;SDS011;14490;54.208;37.686;2023-07-28T04:07:37;10.95;;;6.97;;
26634;SDS011;14490;54.208;37.686;2023-07-28T04:10:05;9.27;;;6.63;;
26634;SDS011;14490;54.208;37.686;2023-07-28T04:12:33;14.80;;;6.88;;
26634;SDS011;14490;54.208;37.686;2023-07-28T04:15:00;10.82;;;6.65;;
26634;SDS011;14490;54.208;37.686;2023-07-28T04:17:28;6.93;;;6.22;;
26634;SDS011;14490;54.208;37.686;2023-07-28T04:19:57;8.98;;;6.88;;
26634;SDS011;14490;54.208;37.686;2023-07-28T04:22:24;13.65;;;6.60;;
26634;SDS011;14490;54.208;37.686;2023-07-28T04:24:51;11.50;;;6.20;;
26634;SDS011;14490;54.208;37.686;2023-07-28T04:27:19;10.82;;;6.18;;
26634;SDS011;14490;54.208;37.686;2023-07-28T04:29:47;7.85;;;5.90;;
26634;SDS011;14490;54.208;37.686;2023-07-28T04:32:17;13.88;;;5.93;;
26634;SDS011;14490;54.208;37.686;2023-07-28T04:34:46;6.75;;;6.10;;
26634;SDS011;14490;54.208;37.686;2023-07-28T04:37:15;13.93;;;7.25;;
26634;SDS011;14490;54.208;37.686;2023-07-28T04:39:43;7.35;;;6.55;;
26634;SDS011;14490;54.208;37.686;2023-07-28T04:42:12;15.48;;;7.57;;
26634;SDS011;14490;54.208;37.686;2023-07-28T04:44:39;14.95;;;7.47;;
26634;SDS011;14490;54.208;37.686;2023-07-28T04:47:07;10.63;;;5.78;;
26634;SDS011;14490;54.208;37.686;2023-07-28T04:49:34;8.73;;;5.93;;
26634;SDS011;14490;54.208;37.686;2023-07-28T04:52:04;10.93;;;7.05;;
26634;SDS011;14490;54.208;37.686;2023-07-28T04:54:34;7.65;;;5.65;;
26634;SDS011;14490;54.208;37.686;2023-07-28T04:57:01;6.38;;;5.38;;
26634;SDS011;14490;54.208;37.686;2023-07-28T04:59:28;9.95;;;5.85;;
26634;SDS011;14490;54.208;37.686;2023-07-28T05:01:56;10.77;;;6.30;;
26634;SDS011;14490;54.208;37.686;2023-07-28T05:04:24;17.92;;;7.07;;
26634;SDS011;14490;54.208;37.686;2023-07-28T05:06:52;7.90;;;6.18;;
26634;SDS011;14490;54.208;37.686;2023-07-28T05:09:19;10.95;;;5.57;;
26634;SDS011;14490;54.208;37.686;2023-07-28T05:11:48;9.00;;;6.10;;
26634;SDS011;14490;54.208;37.686;2023-07-28T05:14:16;7.20;;;6.13;;
26634;SDS011;14490;54.208;37.686;2023-07-28T05:16:43;10.32;;;5.95;;
26634;SDS011;14490;54.208;37.686;2023-07-28T05:19:12;7.88;;;6.07;;
26634;SDS011;14490;54.208;37.686;2023-07-28T05:21:39;11.13;;;5.90;;
26634;SDS011;14490;54.208;37.686;2023-07-28T05:24:07;8.90;;;5.30;;
26634;SDS011;14490;54.208;37.686;2023-07-28T05:26:34;10.05;;;5.38;;
26634;SDS011;14490;54.208;37.686;2023-07-28T05:29:03;5.63;;;4.97;;
26634;SDS011;14490;54.208;37.686;2023-07-28T05:31:32;7.05;;;6.00;;
26634;SDS011;14490;54.208;37.686;2023-07-28T05:33:59;8.07;;;6.18;;
26634;SDS011;14490;54.208;37.686;2023-07-28T05:36:26;11.82;;;6.10;;
26634;SDS011;14490;54.208;37.686;2023-07-28T05:38:57;8.25;;;6.70;;
26634;SDS011;14490;54.208;37.686;2023-07-28T05:41:25;6.32;;;5.65;;
26634;SDS011;14490;54.208;37.686;2023-07-28T05:43:53;4.85;;;3.70;;
26634;SDS011;14490;54.208;37.686;2023-07-28T05:46:22;3.97;;;3.40;;
26634;SDS011;14490;54.208;37.686;2023-07-28T05:48:51;2.53;;;2.33;;
26634;SDS011;14490;54.208;37.686;2023-07-28T05:51:20;1.98;;;1.67;;
26634;SDS011;14490;54.208;37.686;2023-07-28T05:53:47;3.50;;;1.63;;
26634;SDS011;14490;54.208;37.686;2023-07-28T05:56:15;3.65;;;2.90;;
26634;SDS011;14490;54.208;37.686;2023-07-28T05:58:44;6.93;;;2.90;;
26634;SDS011;14490;54.208;37.686;2023-07-28T06:01:13;3.55;;;2.80;;
26634;SDS011;14490;54.208;37.686;2023-07-28T06:03:42;3.45;;;2.13;;
26634;SDS011;14490;54.208;37.686;2023-07-28T06:06:09;2.42;;;1.98;;
26634;SDS011;14490;54.208;37.686;2023-07-28T06:08:37;4.18;;;2.00;;
26634;SDS011;14490;54.208;37.686;2023-07-28T06:11:05;4.18;;;2.55;;
26634;SDS011;14490;54.208;37.686;2023-07-28T06:13:33;4.20;;;2.75;;
26634;SDS011;14490;54.208;37.686;2023-07-28T06:16:00;5.07;;;2.17;;
26634;SDS011;14490;54.208;37.686;2023-07-28T06:18:29;5.13;;;2.67;;
26634;SDS011;14490;54.208;37.686;2023-07-28T06:20:58;5.20;;;2.03;;
26634;SDS011;14490;54.208;37.686;2023-07-28T06:23:25;5.68;;;2.58;;
26634;SDS011;14490;54.208;37.686;2023-07-28T06:25:53;4.00;;;2.58;;
26634;SDS011;14490;54.208;37.686;2023-07-28T06:28:20;5.57;;;2.63;;
26634;SDS011;14490;54.208;37.686;2023-07-28T06:30:52;4.78;;;2.20;;
26634;SDS011;14490;54.208;37.686;2023-07-28T06:33:20;3.85;;;2.50;;
26634;SDS011;14490;54.208;37.686;2023-07-28T06:35:48;8.05;;;2.75;;
26634;SDS011;14490;54.208;37.686;2023-07-28T06:38:17;7.95;;;3.05;;
26634;SDS011;14490;54.208;37.686;2023-07-28T06:40:44;9.63;;;2.85;;
26634;SDS011;14490;54.208;37.686;2023-07-28T06:43:11;9.82;;;2.53;;
26634;SDS011;14490;54.208;37.686;2023-07-28T06:45:39;9.73;;;3.25;;
26634;SDS011;14490;54.208;37.686;2023-07-28T06:48:06;5.30;;;2.92;;
26634;SDS011;14490;54.208;37.686;2023-07-28T06:50:34;3.33;;;3.03;;
26634;SDS011;14490;54.208;37.686;2023-07-28T06:53:01;5.15;;;2.65;;
26634;SDS011;14490;54.208;37.686;2023-07-28T06:55:30;8.23;;;3.90;;
26634;SDS011;14490;54.208;37.686;2023-07-28T06:57:57;6.53;;;3.17;;
26634;SDS011;14490;54.208;37.686;2023-07-28T07:00:25;7.18;;;4.00;;
26634;SDS011;14490;54.208;37.686;2023-07-28T07:02:57;3.78;;;2.35;;
26634;SDS011;14490;54.208;37.686;2023-07-28T07:05:38;4.97;;;3.03;;
26634;SDS011;14490;54.208;37.686;2023-07-28T07:08:19;4.25;;;2.50;;
26634;SDS011;14490;54.208;37.686;2023-07-28T07:17:13;4.25;;;2.85;;
26634;SDS011;14490;54.208;37.686;2023-07-28T07:19:54;5.63;;;2.80;;
26634;SDS011;14490;54.208;37.686;2023-07-28T07:22:35;6.45;;;3.10;;
26634;SDS011;14490;54.208;37.686;2023-07-28T07:25:13;4.03;;;2.95;;
26634;SDS011;14490;54.208;37.686;2023-07-28T07:27:45;4.10;;;2.97;;
26634;SDS011;14490;54.208;37.686;2023-07-28T07:30:21;5.82;;;3.40;;
26634;SDS011;14490;54.208;37.686;2023-07-28T07:33:02;9.05;;;3.00;;
26634;SDS011;14490;54.208;37.686;2023-07-28T07:35:30;6.40;;;3.13;;
26634;SDS011;14490;54.208;37.686;2023-07-28T07:38:04;5.63;;;3.08;;
26634;SDS011;14490;54.208;37.686;2023-07-28T07:40:39;6.95;;;4.15;;
26634;SDS011;14490;54.208;37.686;2023-07-28T07:43:06;10.52;;;3.72;;
26634;SDS011;14490;54.208;37.686;2023-07-28T07:45:54;6.00;;;3.05;;
26634;SDS011;14490;54.208;37.686;2023-07-28T07:48:28;8.13;;;3.78;;
26634;SDS011;14490;54.208;37.686;2023-07-28T07:51:08;6.13;;;3.70;;
26634;SDS011;14490;54.208;37.686;2023-07-28T07:53:43;6.47;;;4.05;;
26634;SDS011;14490;54.208;37.686;2023-07-28T07:56:20;9.70;;;4.72;;
26634;SDS011;14490;54.208;37.686;2023-07-28T07:59:01;6.18;;;4.10;;
26634;SDS011;14490;54.208;37.686;2023-07-28T08:01:45;9.65;;;4.72;;
26634;SDS011;14490;54.208;37.686;2023-07-28T08:04:26;6.78;;;3.88;;
26634;SDS011;14490;54.208;37.686;2023-07-28T08:07:06;12.38;;;5.25;;
26634;SDS011;14490;54.208;37.686;2023-07-28T08:09:46;12.35;;;5.38;;
26634;SDS011;14490;54.208;37.686;2023-07-28T08:12:26;9.63;;;5.25;;
26634;SDS011;14490;54.208;37.686;2023-07-28T08:15:07;9.63;;;5.60;;
26634;SDS011;14490;54.208;37.686;2023-07-28T08:20:24;7.97;;;4.95;;
26634;SDS011;14490;54.208;37.686;2023-07-28T08:23:05;4.97;;;4.45;;
26634;SDS011;14490;54.208;37.686;2023-07-28T08:25:46;7.97;;;4.35;;
26634;SDS011;14490;54.208;37.686;2023-07-28T08:28:28;8.57;;;4.07;;
26634;SDS011;14490;54.208;37.686;2023-07-28T08:31:09;5.18;;;3.97;;
26634;SDS011;14490;54.208;37.686;2023-07-28T08:36:53;6.05;;;4.53;;
26634;SDS011;14490;54.208;37.686;2023-07-28T08:39:20;4.72;;;4.10;;
26634;SDS011;14490;54.208;37.686;2023-07-28T08:41:49;10.18;;;7.07;;
26634;SDS011;14490;54.208;37.686;2023-07-28T08:44:24;29.73;;;6.38;;
26634;SDS011;14490;54.208;37.686;2023-07-28T08:46:56;7.82;;;5.43;;
26634;SDS011;14490;54.208;37.686;2023-07-28T08:49:37;9.30;;;5.00;;
26634;SDS011;14490;54.208;37.686;2023-07-28T08:55:21;9.02;;;5.20;;
26634;SDS011;14490;54.208;37.686;2023-07-28T08:57:51;6.22;;;5.63;;
26634;SDS011;14490;54.208;37.686;2023-07-28T09:00:20;6.43;;;4.95;;
26634;SDS011;14490;54.208;37.686;2023-07-28T09:02:48;4.60;;;4.15;;
26634;SDS011;14490;54.208;37.686;2023-07-28T09:05:25;7.97;;;4.53;;
26634;SDS011;14490;54.208;37.686;2023-07-28T09:08:07;8.23;;;5.13;;
26634;SDS011;14490;54.208;37.686;2023-07-28T09:10:53;8.27;;;4.32;;
26634;SDS011;14490;54.208;37.686;2023-07-28T09:16:30;7.80;;;5.45;;
26634;SDS011;14490;54.208;37.686;2023-07-28T09:19:04;11.10;;;5.78;;
26634;SDS011;14490;54.208;37.686;2023-07-28T09:21:32;8.48;;;6.07;;
26634;SDS011;14490;54.208;37.686;2023-07-28T09:24:00;18.30;;;7.43;;
26634;SDS011;14490;54.208;37.686;2023-07-28T09:26:38;10.38;;;8.75;;
26634;SDS011;14490;54.208;37.686;2023-07-28T09:29:10;16.83;;;8.77;;
26634;SDS011;14490;54.208;37.686;2023-07-28T09:31:39;24.25;;;11.75;;
26634;SDS011;14490;54.208;37.686;2023-07-28T09:34:06;18.23;;;11.40;;
26634;SDS011;14490;54.208;37.686;2023-07-28T09:36:35;14.05;;;10.10;;
26634;SDS011;14490;54.208;37.686;2023-07-28T09:42:07;16.30;;;7.85;;
26634;SDS011;14490;54.208;37.686;2023-07-28T09:44:35;17.30;;;8.73;;
26634;SDS011;14490;54.208;37.686;2023-07-28T09:47:03;15.55;;;8.43;;
26634;SDS011;14490;54.208;37.686;2023-07-28T09:49:33;10.70;;;9.63;;
26634;SDS011;14490;54.208;37.686;2023-07-28T09:54:30;11.82;;;10.38;;
26634;SDS011;14490;54.208;37.686;2023-07-28T09:57:01;14.95;;;11.05;;
26634;SDS011;14490;54.208;37.686;2023-07-28T09:59:35;16.17;;;11.20;;
26634;SDS011;14490;54.208;37.686;2023-07-28T10:02:05;15.38;;;12.63;;
26634;SDS011;14490;54.208;37.686;2023-07-28T10:04:32;14.35;;;11.95;;
26634;SDS011;14490;54.208;37.686;2023-07-28T10:06:59;12.70;;;11.40;;
26634;SDS011;14490;54.208;37.686;2023-07-28T10:09:29;21.33;;;13.18;;
26634;SDS011;14490;54.208;37.686;2023-07-28T10:11:58;14.95;;;9.85;;
26634;SDS011;14490;54.208;37.686;2023-07-28T10:14:30;12.48;;;10.13;;
26634;SDS011;14490;54.208;37.686;2023-07-28T10:17:03;8.63;;;6.20;;
26634;SDS011;14490;54.208;37.686;2023-07-28T10:19:33;10.60;;;6.82;;
26634;SDS011;14490;54.208;37.686;2023-07-28T10:22:07;8.93;;;7.00;;
26634;SDS011;14490;54.208;37.686;2023-07-28T10:24:52;7.82;;;7.13;;
26634;SDS011;14490;54.208;37.686;2023-07-28T10:27:30;6.70;;;5.68;;
26634;SDS011;14490;54.208;37.686;2023-07-28T10:30:03;11.23;;;7.38;;
26634;SDS011;14490;54.208;37.686;2023-07-28T10:32:36;8.98;;;6.97;;
26634;SDS011;14490;54.208;37.686;2023-07-28T10:35:08;10.25;;;7.45;;
26634;SDS011;14490;54.208;37.686;2023-07-28T10:41:09;11.70;;;8.85;;
26634;SDS011;14490;54.208;37.686;2023-07-28T10:43:41;13.27;;;8.88;;
26634;SDS011;14490;54.208;37.686;2023-07-28T10:46:14;9.50;;;8.20;;
26634;SDS011;14490;54.208;37.686;2023-07-28T10:48:47;18.35;;;10.25;;
26634;SDS011;14490;54.208;37.686;2023-07-28T10:51:41;11.90;;;7.88;;
26634;SDS011;14490;54.208;37.686;2023-07-28T10:54:08;8.68;;;6.43;;
26634;SDS011;14490;54.208;37.686;2023-07-28T10:56:41;13.93;;;7.80;;
26634;SDS011;14490;54.208;37.686;2023-07-28T10:59:20;7.65;;;6.63;;
26634;SDS011;14490;54.208;37.686;2023-07-28T11:01:51;9.25;;;7.50;;
26634;SDS011;14490;54.208;37.686;2023-07-28T11:04:36;21.92;;;9.68;;
26634;SDS011;14490;54.208;37.686;2023-07-28T11:07:04;28.40;;;10.90;;
26634;SDS011;14490;54.208;37.686;2023-07-28T11:09:35;18.15;;;9.32;;
26634;SDS011;14490;54.208;37.686;2023-07-28T11:12:04;15.20;;;8.43;;
26634;SDS011;14490;54.208;37.686;2023-07-28T11:14:38;15.85;;;9.80;;
26634;SDS011;14490;54.208;37.686;2023-07-28T11:20:29;20.33;;;8.45;;
26634;SDS011;14490;54.208;37.686;2023-07-28T11:22:57;13.20;;;7.85;;
26634;SDS011;14490;54.208;37.686;2023-07-28T11:25:27;12.07;;;8.88;;
26634;SDS011;14490;54.208;37.686;2023-07-28T11:27:55;12.32;;;8.45;;
26634;SDS011;14490;54.208;37.686;2023-07-28T11:30:24;12.27;;;8.50;;
26634;SDS011;14490;54.208;37.686;2023-07-28T11:32:52;14.88;;;9.20;;
26634;SDS011;14490;54.208;37.686;2023-07-28T11:35:22;18.98;;;9.25;;
26634;SDS011;14490;54.208;37.686;2023-07-28T11:37:52;13.75;;;8.73;;
26634;SDS011;14490;54.208;37.686;2023-07-28T11:40:20;30.25;;;10.35;;
26634;SDS011;14490;54.208;37.686;2023-07-28T11:42:48;19.70;;;10.27;;
26634;SDS011;14490;54.208;37.686;2023-07-28T11:45:19;17.90;;;11.98;;
26634;SDS011;14490;54.208;37.686;2023-07-28T11:47:51;27.33;;;14.93;;
26634;SDS011;14490;54.208;37.686;2023-07-28T11:50:24;25.30;;;14.85;;
26634;SDS011;14490;54.208;37.686;2023-07-28T11:52:54;29.38;;;16.17;;
26634;SDS011;14490;54.208;37.686;2023-07-28T11:55:21;28.52;;;16.40;;
26634;SDS011;14490;54.208;37.686;2023-07-28T11:57:49;29.27;;;15.20;;
26634;SDS011;14490;54.208;37.686;2023-07-28T12:00:17;25.15;;;16.27;;
26634;SDS011;14490;54.208;37.686;2023-07-28T12:03:00;30.95;;;15.13;;
26634;SDS011;14490;54.208;37.686;2023-07-28T12:05:31;29.55;;;17.38;;
26634;SDS011;14490;54.208;37.686;2023-07-28T12:08:02;39.70;;;20.13;;
26634;SDS011;14490;54.208;37.686;2023-07-28T12:10:33;33.15;;;17.42;;
26634;SDS011;14490;54.208;37.686;2023-07-28T12:13:03;37.72;;;19.52;;
26634;SDS011;14490;54.208;37.686;2023-07-28T12:18:46;36.92;;;19.15;;
26634;SDS011;14490;54.208;37.686;2023-07-28T12:21:13;34.90;;;18.38;;
26634;SDS011;14490;54.208;37.686;2023-07-28T12:23:43;37.83;;;20.00;;
26634;SDS011;14490;54.208;37.686;2023-07-28T12:26:10;33.67;;;20.27;;
26634;SDS011;14490;54.208;37.686;2023-07-28T12:28:37;32.22;;;19.52;;
26634;SDS011;14490;54.208;37.686;2023-07-28T12:31:07;25.75;;;17.38;;
26634;SDS011;14490;54.208;37.686;2023-07-28T12:33:37;37.85;;;20.48;;
26634;SDS011;14490;54.208;37.686;2023-07-28T12:36:04;46.03;;;25.42;;
26634;SDS011;14490;54.208;37.686;2023-07-28T12:38:34;47.75;;;23.75;;
26634;SDS011;14490;54.208;37.686;2023-07-28T12:41:03;39.88;;;20.00;;
26634;SDS011;14490;54.208;37.686;2023-07-28T12:43:41;39.60;;;21.17;;
26634;SDS011;14490;54.208;37.686;2023-07-28T12:48:37;31.75;;;20.42;;
26634;SDS011;14490;54.208;37.686;2023-07-28T12:51:04;34.30;;;21.23;;
26634;SDS011;14490;54.208;37.686;2023-07-28T12:53:31;52.45;;;29.30;;
26634;SDS011;14490;54.208;37.686;2023-07-28T12:56:00;50.42;;;29.55;;
26634;SDS011;14490;54.208;37.686;2023-07-28T12:58:29;54.63;;;29.70;;
26634;SDS011;14490;54.208;37.686;2023-07-28T13:00:56;38.97;;;26.10;;
26634;SDS011;14490;54.208;37.686;2023-07-28T13:03:24;50.88;;;29.50;;
26634;SDS011;14490;54.208;37.686;2023-07-28T13:05:51;45.40;;;26.23;;
26634;SDS011;14490;54.208;37.686;2023-07-28T13:08:18;38.83;;;27.25;;
26634;SDS011;14490;54.208;37.686;2023-07-28T13:10:45;42.85;;;26.98;;
26634;SDS011;14490;54.208;37.686;2023-07-28T13:13:12;35.08;;;22.77;;
26634;SDS011;14490;54.208;37.686;2023-07-28T13:15:41;29.73;;;22.00;;
26634;SDS011;14490;54.208;37.686;2023-07-28T13:18:08;34.78;;;22.20;;
26634;SDS011;14490;54.208;37.686;2023-07-28T13:20:35;23.13;;;17.02;;
26634;SDS011;14490;54.208;37.686;2023-07-28T13:23:02;23.60;;;18.83;;
26634;SDS011;14490;54.208;37.686;2023-07-28T13:25:30;21.67;;;17.30;;
26634;SDS011;14490;54.208;37.686;2023-07-28T13:27:57;22.83;;;17.33;;
26634;SDS011;14490;54.208;37.686;2023-07-28T13:30:27;24.23;;;17.88;;
26634;SDS011;14490;54.208;37.686;2023-07-28T13:33:01;20.65;;;17.42;;
26634;SDS011;14490;54.208;37.686;2023-07-28T13:35:30;20.48;;;18.38;;
26634;SDS011;14490;54.208;37.686;2023-07-28T13:37:57;22.85;;;18.42;;
26634;SDS011;14490;54.208;37.686;2023-07-28T13:40:24;21.38;;;17.23;;
26634;SDS011;14490;54.208;37.686;2023-07-28T13:42:52;21.00;;;15.85;;
26634;SDS011;14490;54.208;37.686;2023-07-28T13:45:19;21.67;;;15.00;;
26634;SDS011;14490;54.208;37.686;2023-07-28T13:47:46;26.90;;;18.33;;
26634;SDS011;14490;54.208;37.686;2023-07-28T13:50:15;25.52;;;18.60;;
26634;SDS011;14490;54.208;37.686;2023-07-28T13:52:42;20.88;;;16.98;;
26634;SDS011;14490;54.208;37.686;2023-07-28T13:55:10;22.63;;;17.42;;
26634;SDS011;14490;54.208;37.686;2023-07-28T13:57:40;27.83;;;17.80;;
26634;SDS011;14490;54.208;37.686;2023-07-28T14:00:08;18.30;;;16.40;;
26634;SDS011;14490;54.208;37.686;2023-07-28T14:02:36;29.75;;;19.77;;
26634;SDS011;14490;54.208;37.686;2023-07-28T14:05:04;22.90;;;18.92;;
26634;SDS011;14490;54.208;37.686;2023-07-28T14:07:33;17.65;;;14.88;;
26634;SDS011;14490;54.208;37.686;2023-07-28T14:10:01;15.95;;;13.18;;
26634;SDS011;14490;54.208;37.686;2023-07-28T14:12:28;11.25;;;8.15;;
26634;SDS011;14490;54.208;37.686;2023-07-28T14:14:55;9.40;;;7.80;;
26634;SDS011;14490;54.208;37.686;2023-07-28T14:17:22;7.20;;;6.53;;
26634;SDS011;14490;54.208;37.686;2023-07-28T14:19:49;5.90;;;5.30;;
26634;SDS011;14490;54.208;37.686;2023-07-28T14:22:17;5.88;;;5.28;;
26634;SDS011;14490;54.208;37.686;2023-07-28T14:24:47;6.40;;;5.80;;
26634;SDS011;14490;54.208;37.686;2023-07-28T14:27:14;5.78;;;5.28;;
26634;SDS011;14490;54.208;37.686;2023-07-28T14:29:41;6.95;;;6.45;;
26634;SDS011;14490;54.208;37.686;2023-07-28T14:32:09;6.45;;;5.85;;
26634;SDS011;14490;54.208;37.686;2023-07-28T14:34:36;7.65;;;6.15;;
26634;SDS011;14490;54.208;37.686;2023-07-28T14:37:05;9.43;;;6.32;;
26634;SDS011;14490;54.208;37.686;2023-07-28T14:39:33;7.13;;;6.53;;
26634;SDS011;14490;54.208;37.686;2023-07-28T14:42:01;8.10;;;5.55;;
26634;SDS011;14490;54.208;37.686;2023-07-28T14:44:29;7.28;;;5.72;;
26634;SDS011;14490;54.208;37.686;2023-07-28T14:46:56;6.50;;;6.00;;
26634;SDS011;14490;54.208;37.686;2023-07-28T14:49:24;6.20;;;5.70;;
26634;SDS011;14490;54.208;37.686;2023-07-28T14:51:53;6.53;;;5.80;;
26634;SDS011;14490;54.208;37.686;2023-07-28T14:54:20;7.70;;;6.65;;
26634;SDS011;14490;54.208;37.686;2023-07-28T14:56:47;6.68;;;6.07;;
26634;SDS011;14490;54.208;37.686;2023-07-28T14:59:17;6.32;;;5.70;;
26634;SDS011;14490;54.208;37.686;2023-07-28T15:01:45;6.72;;;5.43;;
26634;SDS011;14490;54.208;37.686;2023-07-28T15:04:14;6.85;;;5.68;;
26634;SDS011;14490;54.208;37.686;2023-07-28T15:06:41;5.72;;;4.70;;
26634;SDS011;14490;54.208;37.686;2023-07-28T15:09:08;5.70;;;5.15;;
26634;SDS011;14490;54.208;37.686;2023-07-28T15:11:36;5.03;;;4.63;;
26634;SDS011;14490;54.208;37.686;2023-07-28T15:14:04;5.50;;;5.10;;
26634;SDS011;14490;54.208;37.686;2023-07-28T15:16:34;5.78;;;5.28;;
26634;SDS011;14490;54.208;37.686;2023-07-28T15:19:04;6.90;;;6.20;;